PILOTS ONLINE: 571    ATC ONLINE: 156

EGXW

RAF Waddington

Location

IATA WTN
City Waddington
Country  United Kingdom
Latitude 53° 9' 58" N
Longitude 0° 31' 25" W
Elevation 231 ft
Type Medium Airport

Map

Weather

METAR
2014/08/21 19:50
EGXW 211950Z 24011KT CAVOK 14/08 Q1009 BLU
TAF
2014/08/21 18:03
TAF EGXW 211640Z 2118/2212 24010KT 9999 SCT045 PROB30 
      TEMPO 2118/2202 -RA SCT022 PROB30 
      TEMPO 2202/2206 SCT007 PROB30 
      TEMPO 2206/2209 SCT022

Runways

02/20 9000 ft / 200 ft

Outbound flights

Callsign Flying to Pilot ATD/STD ETA Aircraft

Inbound flights

Callsign Flying from Pilot ATD ETA Aircraft